This is the latest recevied weather packets stored in our database for station/object N9BSW. If no packets are shown the sender has not sent any weather packets the latest 10 day(s).
| Time | Temp. | Humidity | Pressure | Rain* | Wind** | Luminosity | Snow |
|---|---|---|---|---|---|---|---|
| 1777936164 | 23.89° C | 43% | 1003.7 hPa | 0 mm | - | 94 W/m² | - |
| 1777935861 | 24.44° C | 41% | 1004.1 hPa | 0 mm | - | 105 W/m² | - |
| 1777935560 | 24.44° C | 41% | 1004.1 hPa | 0 mm | - | 162 W/m² | - |
| 1777935256 | 25° C | 39% | 1004 hPa | 0 mm | - | 143 W/m² | - |
| 1777934954 | 25° C | 39% | 1004.5 hPa | 0 mm | - | 219 W/m² | - |
| 1777934650 | 25° C | 38% | 1004.6 hPa | 0 mm | - | 244 W/m² | - |
| 1777934347 | 25.56° C | 37% | 1004.5 hPa | 0 mm | - | 234 W/m² | - |
| 1777934042 | 25.56° C | 36% | 1004.4 hPa | 0 mm | - | 293 W/m² | - |
| 1777933739 | 25° C | 36% | 1004.8 hPa | 0 mm | - | 317 W/m² | - |
| 1777933435 | 25° C | 36% | 1004.6 hPa | 0 mm | - | 330 W/m² | - |
| 1777933134 | 25° C | 36% | 1004.5 hPa | 0 mm | - | 166 W/m² | - |
| 1777932830 | 25° C | 36% | 1004.7 hPa | 0 mm | - | 373 W/m² | - |
| 1777932528 | 25.56° C | 36% | 1004.7 hPa | 0 mm | - | 315 W/m² | - |
| 1777932224 | 25.56° C | 37% | 1004.6 hPa | 0 mm | - | 426 W/m² | - |
| 1777931922 | 25° C | 39% | 1004.7 hPa | 0 mm | - | 375 W/m² | - |
| 1777931618 | 25° C | 39% | 1004.6 hPa | 0 mm | - | 235 W/m² | - |
| 1777931314 | 23.89° C | 44% | 1005 hPa | 0 mm | - | 467 W/m² | - |
| 1777931011 | 23.89° C | 50% | 1004.8 hPa | 0 mm | - | 162 W/m² | - |
| 1777930708 | 23.89° C | 50% | 1004.7 hPa | 0 mm | - | 202 W/m² | - |
| 1777930403 | 23.33° C | 53% | 1004.8 hPa | 0 mm | - | 297 W/m² | - |
| 1777930101 | 23.33° C | 51% | 1005.1 hPa | 0 mm | - | 198 W/m² | - |
| 1777929797 | 23.89° C | 50% | 1004.8 hPa | 0 mm | - | 228 W/m² | - |
| 1777929495 | 23.89° C | 49% | 1005.1 hPa | 0 mm | - | 303 W/m² | - |
| 1777929191 | 23.89° C | 51% | 1005.1 hPa | 0 mm | - | 234 W/m² | - |
| 1777928889 | 23.89° C | 49% | 1005.4 hPa | 0 mm | - | 199 W/m² | - |
* Rain latest hour (hover to see other rain measurements)
** Current wind speed in m/s (hover to see current wind gust speed)